sensor_id;sensor_type;location;lat;lon;timestamp;pressure;altitude;pressure_sealevel;temperature;humidity
57904;BME280;43720;47.462;19.030;2022-08-04T04:21:47;100499.44;;;22.24;53.63
57904;BME280;43720;47.462;19.030;2022-08-04T04:25:02;100503.41;;;22.39;53.63
57904;BME280;43720;47.462;19.030;2022-08-04T04:31:45;100497.59;;;22.53;53.63
57904;BME280;43720;47.462;19.030;2022-08-04T04:39:00;100506.19;;;22.62;54.05
57904;BME280;43720;47.462;19.030;2022-08-04T04:45:48;100514.13;;;22.64;54.55
57904;BME280;43720;47.462;19.030;2022-08-04T04:49:13;100513.00;;;22.71;54.26
57904;BME280;43720;47.462;19.030;2022-08-04T04:52:36;100523.50;;;22.76;55.24
57904;BME280;43720;47.462;19.030;2022-08-04T04:55:42;100513.66;;;22.78;52.82
57904;BME280;43720;47.462;19.030;2022-08-04T04:58:51;100517.22;;;22.77;54.66
57904;BME280;43720;47.462;19.030;2022-08-04T05:12:41;100522.13;;;22.90;53.92
57904;BME280;43720;47.462;19.030;2022-08-04T05:16:35;100522.50;;;23.06;52.13
57904;BME280;43720;47.462;19.030;2022-08-04T05:19:50;100528.16;;;23.22;51.20
57904;BME280;43720;47.462;19.030;2022-08-04T05:23:06;100530.72;;;23.25;52.40
57904;BME280;43720;47.462;19.030;2022-08-04T05:26:12;100536.28;;;23.44;51.38
57904;BME280;43720;47.462;19.030;2022-08-04T05:29:30;100535.16;;;23.50;50.77
57904;BME280;43720;47.462;19.030;2022-08-04T05:35:49;100543.81;;;23.56;50.78
57904;BME280;43720;47.462;19.030;2022-08-04T05:39:21;100535.66;;;23.61;48.42
57904;BME280;43720;47.462;19.030;2022-08-04T05:42:25;100529.56;;;23.82;46.52
57904;BME280;43720;47.462;19.030;2022-08-04T05:45:29;100532.50;;;23.98;47.30
57904;BME280;43720;47.462;19.030;2022-08-04T05:48:41;100538.19;;;24.12;45.32
57904;BME280;43720;47.462;19.030;2022-08-04T05:51:45;100541.13;;;24.28;43.93
57904;BME280;43720;47.462;19.030;2022-08-04T05:54:50;100545.66;;;24.26;44.35
57904;BME280;43720;47.462;19.030;2022-08-04T05:57:54;100545.16;;;24.40;44.01
57904;BME280;43720;47.462;19.030;2022-08-04T06:00:59;100544.84;;;24.48;43.64
57904;BME280;43720;47.462;19.030;2022-08-04T06:04:02;100546.19;;;24.58;42.99
57904;BME280;43720;47.462;19.030;2022-08-04T06:07:14;100544.88;;;24.68;42.69
57904;BME280;43720;47.462;19.030;2022-08-04T06:10:16;100548.44;;;24.69;42.64
57904;BME280;43720;47.462;19.030;2022-08-04T06:13:32;100544.44;;;24.79;42.32
57904;BME280;43720;47.462;19.030;2022-08-04T06:16:52;100547.03;;;24.80;42.69
57904;BME280;43720;47.462;19.030;2022-08-04T06:19:57;100548.00;;;24.79;42.47
57904;BME280;43720;47.462;19.030;2022-08-04T06:23:22;100546.81;;;24.86;43.17
57904;BME280;43720;47.462;19.030;2022-08-04T06:26:26;100551.94;;;24.91;43.51
57904;BME280;43720;47.462;19.030;2022-08-04T06:29:31;100551.75;;;24.96;43.58
57904;BME280;43720;47.462;19.030;2022-08-04T06:32:43;100545.94;;;25.06;43.38
57904;BME280;43720;47.462;19.030;2022-08-04T06:35:52;100549.00;;;25.19;41.42
57904;BME280;43720;47.462;19.030;2022-08-04T06:38:58;100546.19;;;25.22;41.96
57904;BME280;43720;47.462;19.030;2022-08-04T06:42:01;100549.31;;;25.32;42.04
57904;BME280;43720;47.462;19.030;2022-08-04T06:45:24;100549.78;;;25.42;42.46
57904;BME280;43720;47.462;19.030;2022-08-04T06:48:27;100545.06;;;25.48;41.37
57904;BME280;43720;47.462;19.030;2022-08-04T06:51:36;100537.75;;;25.52;41.64
57904;BME280;43720;47.462;19.030;2022-08-04T06:54:50;100543.03;;;25.53;41.69
57904;BME280;43720;47.462;19.030;2022-08-04T06:57:53;100530.41;;;25.55;41.29
57904;BME280;43720;47.462;19.030;2022-08-04T07:01:02;100533.69;;;25.62;41.26
57904;BME280;43720;47.462;19.030;2022-08-04T07:04:04;100545.87;;;25.69;40.70
57904;BME280;43720;47.462;19.030;2022-08-04T07:07:07;100533.31;;;25.90;39.10
57904;BME280;43720;47.462;19.030;2022-08-04T07:10:10;100535.00;;;25.93;39.57
57904;BME280;43720;47.462;19.030;2022-08-04T07:13:20;100538.06;;;26.04;38.96
57904;BME280;43720;47.462;19.030;2022-08-04T07:16:23;100536.75;;;26.13;39.03
57904;BME280;43720;47.462;19.030;2022-08-04T07:19:33;100540.38;;;26.30;38.21
57904;BME280;43720;47.462;19.030;2022-08-04T07:22:35;100533.81;;;26.36;38.35
57904;BME280;43720;47.462;19.030;2022-08-04T07:25:38;100535.63;;;26.35;38.47
57904;BME280;43720;47.462;19.030;2022-08-04T07:29:01;100538.25;;;26.37;38.19
57904;BME280;43720;47.462;19.030;2022-08-04T07:32:04;100529.91;;;26.43;38.00
57904;BME280;43720;47.462;19.030;2022-08-04T07:35:08;100532.09;;;26.54;37.61
57904;BME280;43720;47.462;19.030;2022-08-04T07:38:31;100524.31;;;26.67;37.19
57904;BME280;43720;47.462;19.030;2022-08-04T07:41:34;100531.66;;;26.80;37.40
57904;BME280;43720;47.462;19.030;2022-08-04T07:44:37;100525.34;;;26.81;36.45
57904;BME280;43720;47.462;19.030;2022-08-04T07:47:41;100522.03;;;26.94;35.85
57904;BME280;43720;47.462;19.030;2022-08-04T07:51:04;100527.09;;;27.00;35.74
57904;BME280;43720;47.462;19.030;2022-08-04T07:54:07;100523.62;;;26.98;36.31
57904;BME280;43720;47.462;19.030;2022-08-04T07:57:15;100519.22;;;27.14;35.40
57904;BME280;43720;47.462;19.030;2022-08-04T08:00:39;100524.81;;;27.10;36.25
57904;BME280;43720;47.462;19.030;2022-08-04T08:03:42;100514.97;;;27.27;35.69
57904;BME280;43720;47.462;19.030;2022-08-04T08:06:44;100515.72;;;27.29;35.94
57904;BME280;43720;47.462;19.030;2022-08-04T08:09:47;100518.56;;;27.44;35.50
57904;BME280;43720;47.462;19.030;2022-08-04T08:12:50;100518.41;;;27.47;35.61
57904;BME280;43720;47.462;19.030;2022-08-04T08:15:53;100513.94;;;27.63;35.84
57904;BME280;43720;47.462;19.030;2022-08-04T08:18:56;100520.06;;;27.83;36.12
57904;BME280;43720;47.462;19.030;2022-08-04T08:21:58;100524.69;;;27.96;35.25
57904;BME280;43720;47.462;19.030;2022-08-04T08:25:05;100509.88;;;28.05;34.97
57904;BME280;43720;47.462;19.030;2022-08-04T08:28:07;100519.41;;;28.11;35.34
57904;BME280;43720;47.462;19.030;2022-08-04T08:31:09;100513.53;;;28.20;35.08
57904;BME280;43720;47.462;19.030;2022-08-04T08:34:12;100519.75;;;28.20;35.02
57904;BME280;43720;47.462;19.030;2022-08-04T08:37:37;100518.53;;;28.10;34.47
57904;BME280;43720;47.462;19.030;2022-08-04T08:40:54;100510.56;;;28.24;34.55
57904;BME280;43720;47.462;19.030;2022-08-04T08:54:53;100521.47;;;28.69;33.94
57904;BME280;43720;47.462;19.030;2022-08-04T09:11:15;100514.66;;;29.23;33.11
57904;BME280;43720;47.462;19.030;2022-08-04T09:14:25;100511.41;;;29.33;32.97
57904;BME280;43720;47.462;19.030;2022-08-04T09:17:36;100506.47;;;29.25;32.44
57904;BME280;43720;47.462;19.030;2022-08-04T09:21:01;100514.19;;;29.31;32.85
57904;BME280;43720;47.462;19.030;2022-08-04T09:24:10;100510.63;;;29.45;32.19
57904;BME280;43720;47.462;19.030;2022-08-04T09:27:56;100512.47;;;29.44;32.09
57904;BME280;43720;47.462;19.030;2022-08-04T09:31:12;100506.78;;;29.49;31.90
57904;BME280;43720;47.462;19.030;2022-08-04T09:34:26;100505.56;;;29.55;32.19
57904;BME280;43720;47.462;19.030;2022-08-04T09:41:27;100504.50;;;29.71;31.10
57904;BME280;43720;47.462;19.030;2022-08-04T09:45:14;100503.16;;;29.79;30.45
57904;BME280;43720;47.462;19.030;2022-08-04T09:48:43;100495.25;;;29.76;31.68
57904;BME280;43720;47.462;19.030;2022-08-04T10:01:45;100475.75;;;30.13;30.95
57904;BME280;43720;47.462;19.030;2022-08-04T10:05:02;100477.87;;;30.23;30.16
57904;BME280;43720;47.462;19.030;2022-08-04T10:08:15;100470.44;;;30.12;30.82
57904;BME280;43720;47.462;19.030;2022-08-04T10:15:12;100473.34;;;30.50;30.33
57904;BME280;43720;47.462;19.030;2022-08-04T10:18:44;100463.03;;;30.69;29.59
57904;BME280;43720;47.462;19.030;2022-08-04T10:22:30;100466.00;;;30.52;29.66
57904;BME280;43720;47.462;19.030;2022-08-04T10:25:52;100460.66;;;30.65;29.41
57904;BME280;43720;47.462;19.030;2022-08-04T10:29:12;100457.91;;;30.79;29.95
